Uni Wealth — VRFV4 — position and weather

sailwx.info

Track history (hours):
 
Tides and Currents Weather Stations Pressure Air Temp Water Temp Dewpoint Dewpoint Depression Visibility Wind Speed Wind Dir Waves Ship Positions

Uni Wealth

Last reported at 2017-Nov-24 16:54 UTC. Time now 2017-Dec-17 08:29 UTC.
Position N 31°06' E 122°32'.
Warning: this ship's position is 22 days out of date.

Length 170 m; draft 7.2 m.

Type: Cargo ship. MMSI: 477621200.

Date/timePositionNaut miles runAvg speedWind from/ knotsBaromVisibWave heightAir tempDewpointWater temp
2017-Nov-24 16:54N 31°06' E 122°32'410.1
2017-Nov-24 16:30N 31°07' E 122°27'510.5
2017-Nov-24 16:00N 31°06' E 122°21'611.7
2017-Nov-24 15:30N 31°08' E 122°15'713.5
2017-Nov-24 15:00N 31°12' E 122°08'713.9
2017-Nov-24 14:30N 31°15' E 122°01'714.8
2017-Nov-24 14:00N 31°16' E 121°52'714.4
2017-Nov-24 13:31N 31°19' E 121°45'611.2
2017-Nov-24 13:00N 31°21' E 121°39'511.3
2017-Nov-24 12:30N 31°24' E 121°33'4 8.9
2017-Nov-24 12:00N 31°27' E 121°29'510.0
2017-Nov-24 11:30N 31°30' E 121°25'510.0
2017-Nov-24 11:00N 31°33' E 121°20'713.1
2017-Nov-24 10:30N 31°38' E 121°15'612.4
2017-Nov-24 10:00N 31°42' E 121°09'610.9
2017-Nov-24 09:29N 31°46' E 121°04'  
Track history (hours):
 
Tides and Currents Weather Stations Pressure Air Temp Water Temp Dewpoint Dewpoint Depression Visibility Wind Speed Wind Dir Waves Ship Positions

Uni Wealth

Last reported at 2017-Nov-24 16:54 UTC. Time now 2017-Dec-17 08:29 UTC.
Position N 31°06' E 122°32'.
Warning: this ship's position is 22 days out of date.

Length 170 m; draft 7.2 m.

Type: Cargo ship. MMSI: 477621200.

Date/timePositionNaut miles runAvg speedWind from/ knotsBaromVisibWave heightAir tempDewpointWater temp
2017-Nov-24 16:54N 31°06' E 122°32'410.1
2017-Nov-24 16:30N 31°07' E 122°27'510.5
2017-Nov-24 16:00N 31°06' E 122°21'611.7
2017-Nov-24 15:30N 31°08' E 122°15'713.5
2017-Nov-24 15:00N 31°12' E 122°08'713.9
2017-Nov-24 14:30N 31°15' E 122°01'714.8
2017-Nov-24 14:00N 31°16' E 121°52'714.4
2017-Nov-24 13:31N 31°19' E 121°45'611.2
2017-Nov-24 13:00N 31°21' E 121°39'511.3
2017-Nov-24 12:30N 31°24' E 121°33'4 8.9
2017-Nov-24 12:00N 31°27' E 121°29'510.0
2017-Nov-24 11:30N 31°30' E 121°25'510.0
2017-Nov-24 11:00N 31°33' E 121°20'713.1
2017-Nov-24 10:30N 31°38' E 121°15'612.4
2017-Nov-24 10:00N 31°42' E 121°09'610.9
2017-Nov-24 09:29N 31°46' E 121°04'  

Dump ship's entire track history